Laayoune, Western Sahara
Current Conditions -  °F | °C
As of 2:00 AM on Monday 22 Dec 2014 (Local Time) from GMML Reporting Station
Clear Clear  
Wind Chill: 59°   Ceiling: Unl
Heat Index: 59°   Visibility: 5mi
Dew Point: 54°   Wind: 14mph
Humidity: 82%   Direction: 60°ENE
Pressure: 30.18"   Gusts: NA
Location:  27.15°N, 13.2°W
Report Text: GMML 220200Z 06012KT 8000 NSC 15/12 Q1022 NOSIG
Loading
Personal Weather Stations






























Interactive Weather Map New forecast layout! Learn more

10-Day Weather Forecast

Advertisements
Track Severe Weather on mobile